Time;durP1;ratioP1;P1;durP2;ratioP2;P2;SDS_P1;SDS_P2;PMS_P1;PMS_P2;Temp;Humidity;BMP_temperature;BMP_pressure;BME280_temperature;BME280_humidity;BME280_pressure;Samples;Min_cycle;Max_cycle;Signal;HPM_P1;HPM_P2
2023/09/30 00:02:14;;;;;;;7.77;7.00;;;;;;;13.76;100.00;99724.84;4927355;29;20292;-86
2023/09/30 00:04:44;;;;;;;7.93;7.17;;;;;;;13.76;100.00;99727.53;4942592;29;20196;-86
2023/09/30 00:07:12;;;;;;;8.37;7.57;;;;;;;13.75;100.00;99731.28;4927449;29;20193;-86
2023/09/30 00:09:44;;;;;;;7.77;7.00;;;;;;;13.72;100.00;99724.47;4927527;29;20225;-85
2023/09/30 00:12:12;;;;;;;8.30;7.50;;;;;;;13.73;100.00;99726.13;4941511;29;20200;-85
2023/09/30 00:14:41;;;;;;;7.63;6.93;;;;;;;13.74;100.00;99726.94;4911320;29;20222;-85
2023/09/30 00:17:08;;;;;;;8.17;7.37;;;;;;;13.78;100.00;99728.94;4942980;29;20702;-86
2023/09/30 00:19:39;;;;;;;7.80;6.97;;;;;;;13.79;100.00;99725.19;4912093;29;20256;-86
2023/09/30 00:22:10;;;;;;;7.93;7.13;;;;;;;13.81;100.00;99717.66;4926742;29;20201;-86
2023/09/30 00:24:38;;;;;;;7.83;7.03;;;;;;;13.81;100.00;99724.94;4911390;29;20204;-85
2023/09/30 00:27:07;;;;;;;8.50;7.30;;;;;;;13.83;100.00;99720.13;4911241;29;20193;-87
2023/09/30 00:29:38;;;;;;;7.80;7.00;;;;;;;13.84;100.00;99724.47;4942895;29;20643;-86
2023/09/30 00:32:06;;;;;;;7.53;6.93;;;;;;;13.83;100.00;99720.13;4911423;29;20203;-86
2023/09/30 00:34:37;;;;;;;8.10;7.23;;;;;;;13.78;100.00;99707.38;4926926;29;20190;-85
2023/09/30 00:37:04;;;;;;;8.13;7.27;;;;;;;13.71;100.00;99722.03;4926287;29;20672;-86
2023/09/30 00:39:33;;;;;;;8.10;7.50;;;;;;;13.70;100.00;99723.09;4926814;29;20220;-85
2023/09/30 00:42:04;;;;;;;8.57;7.87;;;;;;;13.64;100.00;99714.91;4942865;29;20201;-86
2023/09/30 00:44:40;;;;;;;7.80;7.10;;;;;;;13.56;100.00;99714.47;4911521;29;20196;-85
2023/09/30 00:47:14;;;;;;;7.80;7.10;;;;;;;13.55;100.00;99719.03;4926403;29;20204;-86
2023/09/30 01:04:54;;;;;;;7.90;7.07;;;;;;;13.28;100.00;99709.00;5729651;23;20225;-85
2023/09/30 01:07:24;;;;;;;7.50;6.80;;;;;;;13.20;100.00;99718.25;4909909;29;20210;-85
2023/09/30 01:09:54;;;;;;;9.53;7.00;;;;;;;13.16;100.00;99712.50;4925058;29;20193;-85
2023/09/30 01:12:26;;;;;;;8.40;7.17;;;;;;;13.13;100.00;99715.66;4924976;29;20607;-85
2023/09/30 02:58:38;;;;;;;6.27;5.73;;;;;;;13.56;100.00;99771.81;5374895;23;20292;-85
2023/09/30 03:04:33;;;;;;;8.07;6.13;;;;;;;13.60;100.00;99762.22;5445654;23;20231;-87
2023/09/30 03:07:03;;;;;;;6.83;6.20;;;;;;;13.66;100.00;99771.22;4920481;29;20204;-86
2023/09/30 03:09:37;;;;;;;6.70;6.10;;;;;;;13.67;100.00;99770.13;4923982;29;20231;-87
2023/09/30 03:12:08;;;;;;;6.67;6.07;;;;;;;13.69;100.00;99776.13;4906995;29;20212;-87
2023/09/30 03:14:35;;;;;;;6.80;6.10;;;;;;;13.69;100.00;99776.13;4888862;29;20207;-87
2023/09/30 03:17:11;;;;;;;6.90;6.20;;;;;;;13.73;100.00;99776.47;4894601;29;20222;-88
2023/09/30 03:19:39;;;;;;;6.50;5.93;;;;;;;13.74;100.00;99775.41;4891898;29;20209;-87
2023/09/30 03:22:11;;;;;;;6.83;6.13;;;;;;;13.74;100.00;99770.84;4889734;29;20206;-88
2023/09/30 03:36:48;;;;;;;6.50;5.67;;;;;;;13.77;100.00;99764.16;5644865;23;20509;-86
2023/09/30 03:39:26;;;;;;;6.40;5.70;;;;;;;13.78;100.00;99765.81;4931280;29;20213;-88
2023/09/30 03:42:18;;;;;;;6.93;6.27;;;;;;;13.81;100.00;99768.81;4918071;29;20762;-86
2023/09/30 03:44:57;;;;;;;6.83;6.00;;;;;;;13.85;100.00;99774.59;4930975;29;20212;-88
2023/09/30 03:47:24;;;;;;;6.33;5.80;;;;;;;13.86;100.00;99774.31;4891910;29;20316;-88
2023/09/30 03:49:58;;;;;;;5.93;5.50;;;;;;;13.89;100.00;99781.13;4900601;29;20204;-88
2023/09/30 03:52:28;;;;;;;6.27;5.70;;;;;;;13.92;100.00;99776.09;4898128;29;20201;-88
2023/09/30 03:54:58;;;;;;;6.33;5.77;;;;;;;13.95;100.00;99782.88;4913236;29;20220;-88
2023/09/30 03:57:27;;;;;;;7.97;7.13;;;;;;;13.99;100.00;99784.03;4904474;29;20205;-88
2023/09/30 04:00:03;;;;;;;6.67;6.07;;;;;;;14.02;100.00;99784.38;4888497;29;20258;-88
2023/09/30 04:02:42;;;;;;;6.77;6.07;;;;;;;14.06;100.00;99793.63;4896104;29;20738;-88
2023/09/30 04:05:36;;;;;;;6.50;5.90;;;;;;;14.10;100.00;99805.56;4892067;29;20678;-88
2023/09/30 04:08:05;;;;;;;6.67;6.03;;;;;;;14.15;100.00;99807.53;4894488;29;20249;-89
2023/09/30 04:10:32;;;;;;;5.97;5.43;;;;;;;14.21;100.00;99811.97;4878291;29;20233;-89
2023/09/30 04:13:11;;;;;;;6.40;5.90;;;;;;;14.23;100.00;99811.75;4891753;29;20265;-89
2023/09/30 04:15:42;;;;;;;6.23;5.73;;;;;;;14.27;100.00;99815.59;4909469;29;20678;-88
2023/09/30 04:18:16;;;;;;;5.80;5.30;;;;;;;14.32;100.00;99823.78;4899613;29;20241;-89
2023/09/30 04:20:54;;;;;;;6.13;5.53;;;;;;;14.36;100.00;99828.50;4885488;29;20210;-89
2023/09/30 04:23:27;;;;;;;6.17;5.53;;;;;;;14.42;100.00;99827.50;4898379;29;20209;-88
2023/09/30 04:25:55;;;;;;;6.83;5.90;;;;;;;14.46;100.00;99835.97;4895855;29;20201;-89
2023/09/30 04:28:27;;;;;;;6.67;6.07;;;;;;;14.46;100.00;99827.88;4877355;29;20663;-89
2023/09/30 04:30:54;;;;;;;6.37;5.80;;;;;;;14.51;100.00;99838.75;4889983;29;20210;-88
2023/09/30 04:33:34;;;;;;;6.60;6.00;;;;;;;14.77;100.00;99845.44;4892380;29;20202;-89
2023/09/30 04:36:08;;;;;;;7.03;6.33;;;;;;;15.28;100.00;99850.66;4894004;29;20238;-89
2023/09/30 04:38:43;;;;;;;9.03;6.83;;;;;;;16.17;100.00;99850.66;4876823;29;20296;-88
2023/09/30 04:41:15;;;;;;;10.43;6.90;;;;;;;16.75;100.00;99846.53;4888414;29;20206;-88
2023/09/30 04:43:49;;;;;;;11.93;7.50;;;;;;;17.33;100.00;99848.41;4883932;29;20214;-89
2023/09/30 04:46:20;;;;;;;10.93;7.50;;;;;;;17.75;100.00;99851.19;4906105;29;20214;-90
2023/09/30 04:48:53;;;;;;;9.33;7.23;;;;;;;17.95;100.00;99859.47;4899258;29;20218;-89
2023/09/30 04:51:25;;;;;;;8.73;7.23;;;;;;;18.04;100.00;99856.00;4891621;29;20749;-89
2023/09/30 04:53:59;;;;;;;12.37;8.13;;;;;;;18.19;100.00;99868.84;4880018;29;20303;-89
2023/09/30 04:56:35;;;;;;;12.90;8.40;;;;;;;18.34;100.00;99874.31;4890323;29;20205;-89
2023/09/30 04:59:04;;;;;;;12.90;8.40;;;;;;;18.31;100.00;99877.56;4897964;29;20211;-89
2023/09/30 05:01:37;;;;;;;12.77;8.20;;;;;;;18.23;100.00;99891.63;4871686;29;20211;-89
2023/09/30 05:04:05;;;;;;;12.80;8.73;;;;;;;18.18;100.00;99896.19;4890601;29;20214;-90
2023/09/30 05:06:32;;;;;;;13.00;8.63;;;;;;;18.07;100.00;99898.03;4893876;29;20208;-91
2023/09/30 05:09:07;;;;;;;14.97;10.03;;;;;;;17.97;100.00;99906.09;4896340;29;20312;-90
2023/09/30 05:11:40;;;;;;;15.13;10.00;;;;;;;17.87;100.00;99912.25;4880723;29;20205;-90
2023/09/30 05:14:08;;;;;;;15.27;9.20;;;;;;;17.87;100.00;99908.75;4887477;29;20242;-90
2023/09/30 05:16:44;;;;;;;15.97;9.97;;;;;;;17.87;100.00;99914.19;4888294;29;20301;-90
2023/09/30 05:19:16;;;;;;;16.07;9.77;;;;;;;17.88;100.00;99918.50;4888713;29;20207;-91
2023/09/30 05:21:47;;;;;;;14.17;9.50;;;;;;;17.84;100.00;99912.78;4897818;29;20208;-90
2023/09/30 05:24:18;;;;;;;16.83;10.63;;;;;;;17.86;100.00;99923.38;4918952;29;20195;-89
2023/09/30 05:26:48;;;;;;;16.73;9.87;;;;;;;17.90;100.00;99909.03;4891765;29;20294;-90
2023/09/30 05:29:16;;;;;;;16.03;10.27;;;;;;;18.03;100.00;99913.19;4875100;29;20256;-90
2023/09/30 05:31:45;;;;;;;15.63;10.07;;;;;;;18.01;100.00;99924.28;4886292;29;20216;-91
2023/09/30 05:34:15;;;;;;;14.93;9.93;;;;;;;17.98;100.00;99919.41;4901855;29;20239;-90
2023/09/30 05:36:42;;;;;;;17.23;10.17;;;;;;;18.05;100.00;99916.47;4890066;29;20346;-91
2023/09/30 05:39:12;;;;;;;18.43;10.30;;;;;;;18.01;100.00;99924.28;4900717;29;20211;-90
2023/09/30 05:41:40;;;;;;;18.63;10.13;;;;;;;18.10;100.00;99918.41;4905489;29;20273;-91
2023/09/30 05:44:07;;;;;;;14.30;9.23;;;;;;;18.13;100.00;99928.72;4872314;29;20673;-90
2023/09/30 05:46:35;;;;;;;16.53;10.43;;;;;;;18.18;100.00;99934.97;4899804;29;20298;-89
2023/09/30 05:49:09;;;;;;;19.50;10.33;;;;;;;18.22;100.00;99933.38;4868332;29;20227;-90
2023/09/30 05:51:41;;;;;;;17.80;10.47;;;;;;;18.22;100.00;99933.38;4882170;29;20209;-89
2023/09/30 05:54:16;;;;;;;15.73;9.80;;;;;;;18.20;100.00;99929.28;4884911;29;20195;-89
2023/09/30 05:56:44;;;;;;;17.93;10.37;;;;;;;18.29;100.00;99933.16;4897669;29;20204;-87
2023/09/30 05:59:13;;;;;;;14.57;9.40;;;;;;;18.24;100.00;99936.66;4882558;29;20211;-87
2023/09/30 06:01:43;;;;;;;14.10;9.57;;;;;;;18.29;100.00;99933.16;4868262;29;20203;-89
2023/09/30 06:04:13;;;;;;;16.70;10.17;;;;;;;18.30;100.00;99953.75;4883188;29;20206;-89
2023/09/30 06:06:43;;;;;;;18.90;10.37;;;;;;;18.31;100.00;99947.25;4900644;29;20197;-89
2023/09/30 06:09:30;;;;;;;17.20;9.80;;;;;;;18.33;100.00;99947.81;4898732;29;20217;-88
2023/09/30 06:12:03;;;;;;;18.10;10.33;;;;;;;18.30;100.00;99946.44;4872581;29;20210;-89
2023/09/30 06:14:39;;;;;;;15.03;9.40;;;;;;;18.43;100.00;99945.97;4898218;29;20208;-89
2023/09/30 06:17:08;;;;;;;16.33;9.87;;;;;;;18.51;100.00;99955.53;4883297;29;20296;-88
2023/09/30 06:19:37;;;;;;;17.17;9.80;;;;;;;18.61;100.00;99960.22;4867511;29;20204;-89
2023/09/30 06:22:10;;;;;;;17.07;10.10;;;;;;;18.69;100.00;99965.94;4858246;29;20232;-89
2023/09/30 06:24:42;;;;;;;14.90;9.20;;;;;;;18.73;100.00;99977.91;4876692;29;20215;-89
2023/09/30 06:27:13;;;;;;;17.33;10.57;;;;;;;18.78;100.00;99972.50;4901704;29;20291;-89
2023/09/30 06:29:42;;;;;;;15.90;9.23;;;;;;;18.91;100.00;99982.88;4885950;29;20237;-89
2023/09/30 06:32:13;;;;;;;14.47;9.50;;;;;;;18.96;100.00;99976.63;4874908;29;20259;-89
2023/09/30 06:34:42;;;;;;;16.40;8.93;;;;;;;19.13;100.00;99977.22;4883106;29;20240;-89
2023/09/30 06:37:12;;;;;;;14.57;9.17;;;;;;;19.34;100.00;99973.50;4876971;29;20594;-89
2023/09/30 06:39:39;;;;;;;16.13;9.17;;;;;;;19.42;100.00;99972.13;4899044;29;20223;-89
2023/09/30 06:42:16;;;;;;;16.47;9.67;;;;;;;19.45;100.00;99974.38;4872309;29;20231;-88
2023/09/30 06:44:48;;;;;;;18.27;9.77;;;;;;;19.60;100.00;99979.81;4898289;29;20721;-88
2023/09/30 06:47:20;;;;;;;14.77;8.73;;;;;;;19.48;100.00;99989.31;4867626;29;20651;-89
2023/09/30 06:49:49;;;;;;;16.03;9.37;;;;;;;19.50;100.00;99979.81;4869914;29;20221;-88
2023/09/30 06:52:18;;;;;;;15.43;8.97;;;;;;;19.50;100.00;99987.97;4884732;29;20739;-88
2023/09/30 06:54:45;;;;;;;15.57;8.80;;;;;;;19.56;100.00;99983.34;4867516;29;20216;-89
2023/09/30 06:57:13;;;;;;;16.97;9.20;;;;;;;19.52;100.00;99983.06;4885662;29;20210;-88
2023/09/30 06:59:42;;;;;;;15.07;9.43;;;;;;;19.59;100.00;99978.19;4878306;29;20224;-88
2023/09/30 07:02:10;;;;;;;14.90;8.77;;;;;;;19.77;100.00;99988.53;4869960;29;20566;-90
2023/09/30 07:04:38;;;;;;;14.90;8.70;;;;;;;19.83;100.00;99997.50;4874398;29;20202;-88
2023/09/30 07:07:11;;;;;;;17.07;9.07;;;;;;;19.90;100.00;99994.50;4890423;29;20216;-88
2023/09/30 07:09:46;;;;;;;15.97;9.23;;;;;;;19.98;100.00;100000.22;4879917;29;20224;-88
2023/09/30 07:12:15;;;;;;;14.93;8.83;;;;;;;20.03;100.00;99991.25;4877855;29;20205;-87
2023/09/30 07:14:43;;;;;;;16.00;9.30;;;;;;;20.06;100.00;99991.50;4895583;29;20202;-87
2023/09/30 07:17:14;;;;;;;15.20;9.37;;;;;;;19.96;100.00;99988.00;4881046;29;20266;-87
2023/09/30 07:19:48;;;;;;;16.17;9.80;;;;;;;20.04;100.00;99988.25;4867522;29;20221;-87
2023/09/30 07:22:16;;;;;;;15.67;9.20;;;;;;;20.14;100.00;99987.44;4870307;29;20306;-87
2023/09/30 07:25:04;;;;;;;17.37;8.90;;;;;;;20.27;100.00;99991.50;4880095;29;20225;-87
2023/09/30 07:27:38;;;;;;;18.30;9.90;;;;;;;20.41;100.00;99998.84;4863662;29;20681;-87
2023/09/30 07:30:14;;;;;;;15.60;9.03;;;;;;;20.59;100.00;99994.72;4885791;29;20233;-86
2023/09/30 07:32:59;;;;;;;15.77;8.83;;;;;;;20.53;100.00;99999.34;4869553;29;20217;-89
2023/09/30 07:35:32;;;;;;;15.73;8.80;;;;;;;20.42;100.00;99996.94;4865729;29;20203;-88
2023/09/30 07:38:00;;;;;;;13.33;8.40;;;;;;;20.45;100.00;100004.56;4893464;29;20243;-88
2023/09/30 07:40:34;;;;;;;16.27;9.27;;;;;;;20.65;100.00;100007.25;4877957;29;20211;-87
2023/09/30 07:43:04;;;;;;;16.23;9.33;;;;;;;20.76;100.00;100010.75;4876049;29;20732;-87
2023/09/30 07:45:34;;;;;;;17.07;8.70;;;;;;;20.84;100.00;100004.72;4890532;29;20212;-87
2023/09/30 07:48:05;;;;;;;16.93;8.27;;;;;;;20.94;100.00;100016.41;4878676;29;20210;-87
2023/09/30 07:50:33;;;;;;;15.30;8.87;;;;;;;21.08;100.00;100016.63;4873145;29;20237;-88
2023/09/30 07:53:08;;;;;;;17.63;9.13;;;;;;;21.17;100.00;100012.25;4903918;29;20196;-87
2023/09/30 07:55:42;;;;;;;15.20;9.13;;;;;;;21.25;100.00;100017.13;4919624;29;20239;-86
2023/09/30 07:58:12;;;;;;;16.17;9.02;;;;;;;21.40;100.00;100013.50;4883040;29;20668;-85
2023/09/30 08:00:45;;;;;;;16.00;9.60;;;;;;;21.48;100.00;100026.53;4888433;29;20281;-87
2023/09/30 08:03:13;;;;;;;15.70;8.17;;;;;;;21.61;100.00;100017.72;4884108;29;20218;-86
2023/09/30 08:05:42;;;;;;;15.80;9.07;;;;;;;21.81;100.00;100033.94;4879550;29;20216;-86
2023/09/30 08:08:17;;;;;;;15.98;8.45;;;;;;;22.00;100.00;100030.56;4887792;29;20206;-87
2023/09/30 08:10:44;;;;;;;17.95;9.05;;;;;;;22.19;100.00;100029.59;4883535;29;20250;-86
2023/09/30 08:13:13;;;;;;;15.70;8.90;;;;;;;22.14;100.00;100037.00;4915660;29;20199;-86
2023/09/30 08:15:43;;;;;;;15.07;8.73;;;;;;;22.16;100.00;100029.34;4901018;29;20203;-87
2023/09/30 08:18:15;;;;;;;15.07;8.30;;;;;;;22.19;100.00;100026.84;4908253;29;20284;-86
2023/09/30 08:20:44;;;;;;;15.77;8.35;;;;;;;22.25;100.00;100028.44;4919983;29;20205;-86
2023/09/30 08:23:15;;;;;;;15.15;9.07;;;;;;;22.16;100.00;100021.16;4905884;29;20208;-86
2023/09/30 08:25:48;;;;;;;14.52;8.20;;;;;;;22.02;100.00;100022.91;4913613;29;20317;-86
2023/09/30 08:28:18;;;;;;;13.32;7.47;;;;;;;21.90;100.00;100031.44;4914425;29;20237;-86
2023/09/30 08:30:50;;;;;;;14.23;8.38;;;;;;;21.82;100.00;100027.41;4891489;29;20671;-88
2023/09/30 08:33:18;;;;;;;14.52;8.18;;;;;;;21.89;100.00;100030.59;4910477;29;20690;-87
2023/09/30 08:35:48;;;;;;;13.43;7.50;;;;;;;21.93;100.00;100037.16;4894999;29;20297;-87
2023/09/30 08:38:19;;;;;;;14.05;8.13;;;;;;;22.16;100.00;100034.81;4890123;29;20724;-87
2023/09/30 08:40:52;;;;;;;12.50;7.80;;;;;;;22.18;100.00;100036.13;4891495;29;20216;-88
2023/09/30 08:43:23;;;;;;;14.63;7.85;;;;;;;22.20;100.00;100028.50;4889552;29;20214;-87
2023/09/30 08:46:00;;;;;;;13.77;7.65;;;;;;;22.35;100.00;100024.78;4905420;29;20218;-86
2023/09/30 08:48:28;;;;;;;12.63;7.40;;;;;;;22.50;100.00;100030.09;4903021;29;20206;-87
2023/09/30 08:50:57;;;;;;;10.75;7.03;;;;;;;22.52;100.00;100027.09;4919038;29;20254;-87
2023/09/30 08:53:27;;;;;;;11.30;6.82;;;;;;;22.65;100.00;100023.69;4888958;29;20206;-87
2023/09/30 08:56:00;;;;;;;14.52;7.43;;;;;;;22.54;100.00;100024.88;4889486;29;20210;-87
2023/09/30 08:58:28;;;;;;;11.60;6.88;;;;;;;22.83;100.00;100031.97;4891164;29;20208;-87
2023/09/30 09:01:09;;;;;;;15.35;7.32;;;;;;;23.02;100.00;100023.00;4908208;29;20213;-86
2023/09/30 09:03:37;;;;;;;15.88;7.45;;;;;;;23.18;100.00;100027.19;4900933;29;20214;-87
2023/09/30 09:06:05;;;;;;;12.25;7.30;;;;;;;23.57;100.00;100033.22;4885644;29;20270;-87
2023/09/30 09:08:41;;;;;;;13.35;7.50;;;;;;;23.58;100.00;100025.84;4888776;29;20750;-86
2023/09/30 09:11:14;;;;;;;12.35;7.57;;;;;;;23.90;100.00;100020.41;4888718;29;20232;-88
2023/09/30 09:13:55;;;;;;;15.18;7.60;;;;;;;24.04;100.00;100010.34;4890012;29;20199;-87
2023/09/30 09:16:24;;;;;;;15.77;7.50;;;;;;;23.94;100.00;100021.44;4908593;29;20209;-86
2023/09/30 09:19:00;;;;;;;11.90;7.15;;;;;;;23.94;100.00;100007.78;4926199;29;20214;-86
2023/09/30 09:21:30;;;;;;;13.02;7.20;;;;;;;24.05;100.00;100013.91;4913133;29;20211;-86
2023/09/30 09:24:01;;;;;;;12.65;7.40;;;;;;;23.96;100.00;100015.69;4911151;29;20657;-86
2023/09/30 09:26:30;;;;;;;13.90;7.25;;;;;;;23.79;100.00;100010.78;4887573;29;20197;-87
2023/09/30 09:29:04;;;;;;;11.40;6.55;;;;;;;23.86;100.00;100019.41;4896431;29;20218;-85
2023/09/30 09:31:34;;;;;;;9.85;6.07;;;;;;;23.93;100.00;100013.56;4899031;29;20286;-86
2023/09/30 09:34:14;;;;;;;11.73;6.40;;;;;;;23.95;100.00;100017.59;4892718;29;20280;-87
2023/09/30 09:36:44;;;;;;;11.73;6.90;;;;;;;24.00;100.00;100031.22;4886049;29;20241;-87
2023/09/30 09:39:30;;;;;;;11.80;6.35;;;;;;;23.56;100.00;100017.13;4897524;29;20203;-88
2023/09/30 09:42:01;;;;;;;10.10;6.22;;;;;;;23.38;100.00;100026.09;4921094;29;20213;-87
2023/09/30 09:44:30;;;;;;;9.48;6.07;;;;;;;23.12;100.00;100025.63;4886668;29;20208;-86
2023/09/30 09:47:03;;;;;;;15.50;7.38;;;;;;;23.23;100.00;100024.41;4893372;29;20199;-88
2023/09/30 09:49:31;;;;;;;11.55;6.75;;;;;;;23.33;100.00;100005.09;4900438;29;20230;-88
2023/09/30 09:52:00;;;;;;;10.43;6.38;;;;;;;23.31;100.00;100009.25;4904359;29;20230;-87
2023/09/30 09:54:32;;;;;;;9.95;6.28;;;;;;;23.22;100.00;100023.56;4904756;29;20238;-87
2023/09/30 09:57:00;;;;;;;12.02;6.25;;;;;;;23.23;100.00;100019.75;4898754;29;20298;-87
2023/09/30 09:59:39;;;;;;;12.27;6.80;;;;;;;23.33;100.00;100023.44;4859875;29;20248;-88
2023/09/30 10:02:17;;;;;;;12.02;7.13;;;;;;;23.64;100.00;100028.22;4885530;29;20315;-87
2023/09/30 10:04:50;;;;;;;10.25;6.13;;;;;;;23.45;100.00;100026.59;4886808;29;20211;-88
2023/09/30 10:07:25;;;;;;;12.63;6.82;;;;;;;23.65;100.00;100013.44;4882710;29;20215;-87
2023/09/30 10:09:53;;;;;;;12.68;7.28;;;;;;;23.82;100.00;100020.28;4892070;29;20217;-87
2023/09/30 10:12:25;;;;;;;11.20;7.07;;;;;;;24.05;100.00;100009.25;4895418;29;20206;-88
2023/09/30 10:14:58;;;;;;;10.73;6.60;;;;;;;23.82;100.00;100023.03;4893496;29;20268;-88
2023/09/30 10:17:59;;;;;;;12.32;7.05;;;;;;;23.87;100.00;100014.75;4889164;29;20193;-88
2023/09/30 10:20:32;;;;;;;15.20;7.15;;;;;;;24.18;100.00;100010.41;4892803;29;20666;-87
2023/09/30 10:23:24;;;;;;;11.50;7.07;;;;;;;24.21;100.00;100017.22;4897332;29;20223;-87
2023/09/30 10:26:17;;;;;;;12.02;7.18;;;;;;;24.47;100.00;100012.91;4913424;29;20741;-87
2023/09/30 10:28:50;;;;;;;13.73;7.35;;;;;;;24.43;100.00;100004.50;4908372;29;20213;-88
2023/09/30 10:31:20;;;;;;;11.50;6.07;;;;;;;24.42;100.00;100007.53;4866908;29;20270;-88
2023/09/30 10:34:02;;;;;;;12.07;7.40;;;;;;;24.39;100.00;99994.44;4887919;29;20715;-88
2023/09/30 10:36:51;;;;;;;11.63;6.97;;;;;;;24.21;100.00;99993.41;4910792;29;20217;-87
2023/09/30 10:39:58;;;;;;;12.50;7.25;;;;;;;24.13;100.00;99994.84;4896222;29;20205;-88
2023/09/30 10:42:51;;;;;;;11.88;7.38;;;;;;;24.21;100.00;99996.16;4907776;29;20232;-87
2023/09/30 10:45:42;;;;;;;13.18;7.65;;;;;;;24.51;100.00;100008.44;4892866;29;20206;-88
2023/09/30 10:48:32;;;;;;;11.73;6.70;;;;;;;24.54;100.00;99999.66;4914829;29;20208;-86
2023/09/30 10:51:01;;;;;;;10.60;7.07;;;;;;;24.64;100.00;100006.84;4910780;29;20229;-86
2023/09/30 10:54:00;;;;;;;10.98;6.53;;;;;;;24.65;100.00;100005.72;4903795;29;20212;-86
2023/09/30 10:56:39;;;;;;;11.48;7.00;;;;;;;24.64;100.00;100018.59;4926160;29;20205;-87
2023/09/30 10:59:09;;;;;;;10.40;6.53;;;;;;;24.45;100.00;100007.72;4908448;29;20220;-87
2023/09/30 11:01:39;;;;;;;12.02;7.82;;;;;;;24.27;100.00;100007.78;4895046;29;20202;-87
2023/09/30 11:04:08;;;;;;;13.18;7.47;;;;;;;24.35;100.00;100002.47;4916437;29;20711;-87
2023/09/30 11:06:40;;;;;;;12.63;7.18;;;;;;;24.41;100.00;99997.69;4912161;29;20627;-88
2023/09/30 11:09:26;;;;;;;11.70;7.03;;;;;;;24.66;100.00;100002.69;4900030;29;20205;-89
2023/09/30 11:11:55;;;;;;;10.35;7.07;;;;;;;24.75;100.00;100003.63;4889263;29;20221;-87
2023/09/30 11:14:30;;;;;;;12.18;7.32;;;;;;;24.80;100.00;99991.75;4889905;29;20289;-87
2023/09/30 11:17:03;;;;;;;13.38;7.55;;;;;;;25.01;100.00;99984.75;4886561;29;20240;-88
2023/09/30 11:19:49;;;;;;;13.50;7.15;;;;;;;25.19;100.00;99986.56;4913431;29;20206;-90
2023/09/30 11:22:22;;;;;;;12.00;7.30;;;;;;;25.57;100.00;99975.31;4922666;29;20225;-87
2023/09/30 11:24:54;;;;;;;13.15;7.93;;;;;;;25.69;100.00;99983.81;4893439;29;20266;-86
2023/09/30 11:27:24;;;;;;;12.73;7.90;;;;;;;25.84;100.00;99988.94;4901991;29;20202;-87
2023/09/30 11:29:55;;;;;;;14.27;8.20;;;;;;;25.93;97.86;99973.34;4889313;29;20250;-87
2023/09/30 11:32:30;;;;;;;14.30;8.90;;;;;;;25.65;94.13;99975.41;4893265;29;20475;-86
2023/09/30 11:35:02;;;;;;;12.80;8.15;;;;;;;25.92;94.61;99968.97;4890570;29;20213;-86
2023/09/30 11:37:32;;;;;;;13.18;8.20;;;;;;;25.51;96.22;99974.59;4885851;29;20710;-89
2023/09/30 11:40:13;;;;;;;15.55;8.57;;;;;;;25.80;95.33;99968.72;4902409;29;20235;-87
2023/09/30 11:43:11;;;;;;;13.88;8.73;;;;;;;25.88;92.97;99965.22;4887640;29;20212;-86
2023/09/30 11:45:39;;;;;;;13.10;8.32;;;;;;;25.95;92.86;99964.78;4882559;29;20216;-88
2023/09/30 11:48:22;;;;;;;14.88;8.60;;;;;;;25.93;92.57;99962.34;4886179;29;20300;-87
2023/09/30 11:50:50;;;;;;;14.00;8.82;;;;;;;26.08;93.25;99958.41;4894736;29;20225;-87
2023/09/30 11:53:18;;;;;;;13.45;8.32;;;;;;;26.31;91.58;99959.22;4890548;29;20198;-87
2023/09/30 11:55:46;;;;;;;13.95;8.75;;;;;;;26.06;91.97;99963.41;4920466;29;20213;-87
2023/09/30 11:58:20;;;;;;;13.15;8.52;;;;;;;26.50;91.30;99966.06;4898630;29;20209;-88
2023/09/30 12:00:53;;;;;;;14.25;8.45;;;;;;;26.82;89.33;99956.66;4880770;29;20237;-87
2023/09/30 12:03:27;;;;;;;13.48;8.68;;;;;;;26.89;89.87;99962.53;4913609;29;20237;-87
2023/09/30 12:06:00;;;;;;;13.57;8.68;;;;;;;26.59;89.56;99958.69;4902466;29;20201;-86
2023/09/30 12:08:29;;;;;;;13.60;8.40;;;;;;;26.70;90.37;99962.75;4930422;29;20198;-85
2023/09/30 12:10:57;;;;;;;15.07;8.70;;;;;;;26.53;88.03;99954.47;4896379;29;20281;-87
2023/09/30 12:13:27;;;;;;;15.15;9.18;;;;;;;26.15;87.54;99956.84;4894181;29;20210;-86
2023/09/30 12:15:57;;;;;;;15.32;8.82;;;;;;;26.13;88.80;99944.56;4905709;29;20212;-87
2023/09/30 12:18:26;;;;;;;15.48;8.98;;;;;;;25.82;89.40;99950.81;4898749;29;20225;-87
2023/09/30 12:20:55;;;;;;;15.57;9.27;;;;;;;25.98;90.51;99951.25;4885499;29;20288;-88
2023/09/30 12:23:23;;;;;;;14.18;8.98;;;;;;;25.88;89.11;99964.41;4913561;29;20356;-87
2023/09/30 12:25:51;;;;;;;15.10;9.00;;;;;;;25.76;88.88;99962.22;4893657;29;20529;-86
2023/09/30 12:28:37;;;;;;;13.07;8.95;;;;;;;25.71;90.12;99962.38;4912848;29;20198;-88
2023/09/30 12:31:09;;;;;;;14.55;9.00;;;;;;;25.76;88.04;99963.03;4892698;29;20217;-87
2023/09/30 12:33:42;;;;;;;16.20;9.80;;;;;;;25.80;87.45;99965.97;4877716;29;20662;-87
2023/09/30 12:36:13;;;;;;;16.60;10.18;;;;;;;25.67;87.92;99967.66;4895828;29;20241;-86
2023/09/30 12:38:41;;;;;;;14.32;9.10;;;;;;;25.61;87.19;99954.38;4882944;29;20209;-86
2023/09/30 12:41:14;;;;;;;15.40;9.80;;;;;;;25.63;87.27;99966.66;4902928;29;20224;-87
2023/09/30 12:43:46;;;;;;;16.02;9.63;;;;;;;25.51;87.24;99973.78;4922053;29;20241;-89
2023/09/30 12:46:16;;;;;;;17.27;10.55;;;;;;;25.38;86.21;99965.28;4914637;29;20222;-87
2023/09/30 12:48:48;;;;;;;18.35;10.32;;;;;;;25.36;85.39;99964.78;4905400;29;20216;-88
2023/09/30 12:51:19;;;;;;;16.48;10.07;;;;;;;25.50;84.59;99959.25;4892562;29;20241;-87
2023/09/30 12:53:52;;;;;;;17.15;10.80;;;;;;;25.56;84.11;99963.53;4907633;29;20190;-87
2023/09/30 12:56:23;;;;;;;18.25;10.57;;;;;;;25.41;84.88;99967.41;4913663;29;20296;-87
2023/09/30 12:58:54;;;;;;;16.90;10.23;;;;;;;25.29;83.81;99967.13;4897751;29;20202;-89
2023/09/30 13:01:22;;;;;;;18.70;10.90;;;;;;;25.22;84.02;99969.50;4904906;29;20221;-87
2023/09/30 13:03:52;;;;;;;18.50;10.88;;;;;;;25.26;83.90;99970.50;4905531;29;20216;-88
2023/09/30 13:06:21;;;;;;;17.67;10.90;;;;;;;25.16;83.89;99970.72;4896341;29;20201;-87
2023/09/30 13:08:58;;;;;;;17.70;10.50;;;;;;;25.18;83.92;99973.16;4887149;29;20206;-88
2023/09/30 13:11:28;;;;;;;17.52;10.82;;;;;;;25.09;83.92;99969.53;4917977;29;20221;-87
2023/09/30 13:13:58;;;;;;;18.20;11.38;;;;;;;25.03;83.75;99963.31;4902656;29;20264;-86
2023/09/30 13:16:26;;;;;;;19.52;10.77;;;;;;;24.75;84.64;99984.44;4886389;29;20214;-88
2023/09/30 13:18:57;;;;;;;18.77;10.80;;;;;;;24.86;84.83;99965.88;4889536;29;20202;-88
2023/09/30 13:21:34;;;;;;;18.83;10.88;;;;;;;24.60;85.69;99970.22;4917482;29;20205;-87
2023/09/30 13:24:02;;;;;;;16.67;10.65;;;;;;;24.63;86.33;99975.91;4886916;29;20207;-87
2023/09/30 13:26:33;;;;;;;17.67;11.35;;;;;;;24.66;86.80;99971.75;4871343;29;20266;-87
2023/09/30 13:29:01;;;;;;;17.75;10.68;;;;;;;24.19;87.29;99979.19;4904866;29;20205;-87
2023/09/30 13:31:30;;;;;;;20.38;11.48;;;;;;;24.30;87.25;99975.16;4916720;29;20236;-88
2023/09/30 13:34:03;;;;;;;16.77;10.43;;;;;;;24.35;87.56;99966.88;4891620;29;20202;-88
2023/09/30 13:36:33;;;;;;;17.92;10.90;;;;;;;24.52;87.30;99975.28;4904375;29;20198;-87
2023/09/30 13:39:07;;;;;;;17.88;11.38;;;;;;;24.56;87.51;99965.34;4904693;29;20228;-89
2023/09/30 13:41:35;;;;;;;16.77;9.95;;;;;;;24.62;88.24;99960.59;4895848;29;20220;-87
2023/09/30 13:44:05;;;;;;;19.30;11.50;;;;;;;24.51;88.35;99965.44;4874554;29;20308;-87
2023/09/30 13:46:35;;;;;;;16.05;10.20;;;;;;;24.54;89.15;99955.81;4879222;29;20573;-87
2023/09/30 13:49:03;;;;;;;18.25;11.63;;;;;;;24.58;88.62;99956.84;4904864;29;20202;-87
2023/09/30 13:51:34;;;;;;;18.83;11.48;;;;;;;24.68;89.50;99953.91;4889509;29;20232;-87
2023/09/30 13:54:04;;;;;;;19.15;11.18;;;;;;;24.80;89.25;99953.38;4878796;29;20204;-88
2023/09/30 13:56:35;;;;;;;19.33;11.50;;;;;;;24.69;88.65;99954.69;4902185;29;20203;-88